AUA9PV LOWW-LSZH
Flight info
| Callsign | AUA9PV |
|---|---|
| Flight time | N/A |
| Altitude | 30000 |
| Route | SOVIL DCT SITNI DCT BAGSI DCT MATIG DCT TRAUN DCT KONIN L856 NEGRA |
| Aircraft | A320/M-SDE3FGHIRWY/LB1 |
Departure
| Time | 2026-04-30 14:36 |
|---|---|
| Airport | Vienna International Airport (LOWW) |
Arrival
| Time | N/A |
|---|---|
| Airport | Zürich Airport (LSZH) |
| Time | Latitude | Longitude | Altitude | Speed | Heading |
|---|---|---|---|---|---|
| 2026-04-30 14:13 | 48.11728 | 16.56738 | 610 ft | 0 kts | 26° |
| 2026-04-30 14:25 | 48.11711 | 16.56725 | 624 ft | 4 kts | 28° |
| 2026-04-30 14:26 | 48.11669 | 16.56676 | 625 ft | 4 kts | 66° |
| 2026-04-30 14:26 | 48.11666 | 16.56650 | 625 ft | 0 kts | 116° |
| 2026-04-30 14:28 | 48.11664 | 16.56658 | 625 ft | 3 kts | 116° |
| 2026-04-30 14:29 | 48.11640 | 16.56732 | 609 ft | 6 kts | 116° |
| 2026-04-30 14:29 | 48.11569 | 16.56950 | 612 ft | 17 kts | 115° |
| 2026-04-30 14:30 | 48.11419 | 16.57387 | 616 ft | 11 kts | 146° |
| 2026-04-30 14:31 | 48.11346 | 16.57353 | 615 ft | 0 kts | 205° |
| 2026-04-30 14:31 | 48.11324 | 16.57338 | 620 ft | 8 kts | 205° |
| 2026-04-30 14:31 | 48.11292 | 16.57315 | 622 ft | 5 kts | 205° |
| 2026-04-30 14:32 | 48.11229 | 16.57275 | 619 ft | 7 kts | 188° |
| 2026-04-30 14:32 | 48.11186 | 16.57347 | 611 ft | 12 kts | 117° |
| 2026-04-30 14:32 | 48.11147 | 16.57463 | 615 ft | 10 kts | 115° |
| 2026-04-30 14:33 | 48.11118 | 16.57554 | 614 ft | 9 kts | 116° |
| 2026-04-30 14:33 | 48.11049 | 16.57652 | 608 ft | 6 kts | 206° |
| 2026-04-30 14:33 | 48.11015 | 16.57626 | 614 ft | 5 kts | 207° |
| 2026-04-30 14:34 | 48.10987 | 16.57605 | 608 ft | 5 kts | 207° |
| 2026-04-30 14:34 | 48.10937 | 16.57567 | 608 ft | 9 kts | 207° |
| 2026-04-30 14:34 | 48.10931 | 16.57486 | 615 ft | 2 kts | 297° |
| 2026-04-30 14:34 | 48.10932 | 16.57483 | 613 ft | 0 kts | 297° |
| 2026-04-30 14:35 | 48.11009 | 16.57252 | 610 ft | 60 kts | 296° |
| 2026-04-30 14:35 | 48.11289 | 16.56383 | 619 ft | 123 kts | 296° |
| 2026-04-30 14:35 | 48.11738 | 16.55003 | 678 ft | 163 kts | 298° |
| 2026-04-30 14:36 | 48.12172 | 16.53496 | 1403 ft | 159 kts | 282° |
| 2026-04-30 14:36 | 48.11923 | 16.51829 | 1930 ft | 179 kts | 246° |
| 2026-04-30 14:36 | 48.11290 | 16.50070 | 2217 ft | 203 kts | 247° |
| 2026-04-30 14:36 | 48.10600 | 16.48089 | 2587 ft | 227 kts | 245° |
| 2026-04-30 14:37 | 48.09833 | 16.45875 | 3040 ft | 252 kts | 245° |
| 2026-04-30 14:37 | 48.08841 | 16.43601 | 3695 ft | 269 kts | 238° |
| 2026-04-30 14:37 | 48.07733 | 16.41344 | 4612 ft | 274 kts | 236° |
| 2026-04-30 14:37 | 48.06573 | 16.39055 | 5544 ft | 279 kts | 235° |
| 2026-04-30 14:38 | 48.05383 | 16.36716 | 6458 ft | 284 kts | 234° |
| 2026-04-30 14:38 | 48.04246 | 16.34282 | 7327 ft | 288 kts | 243° |
| 2026-04-30 14:38 | 48.03516 | 16.31502 | 8212 ft | 290 kts | 259° |
| 2026-04-30 14:38 | 48.03309 | 16.28514 | 9053 ft | 291 kts | 274° |
| 2026-04-30 14:39 | 48.03378 | 16.25463 | 9922 ft | 295 kts | 275° |
| 2026-04-30 14:39 | 48.03445 | 16.22352 | 10557 ft | 307 kts | 275° |
| 2026-04-30 14:39 | 48.03516 | 16.19029 | 10821 ft | 331 kts | 275° |
| 2026-04-30 14:40 | 48.03642 | 16.12621 | 11534 ft | 360 kts | 274° |
| 2026-04-30 14:40 | 48.03663 | 16.11345 | 11765 ft | 362 kts | 274° |
| 2026-04-30 14:40 | 48.03723 | 16.07570 | 12504 ft | 366 kts | 274° |
| 2026-04-30 14:40 | 48.03781 | 16.03752 | 13261 ft | 370 kts | 274° |
| 2026-04-30 14:41 | 48.03837 | 15.99931 | 13995 ft | 374 kts | 274° |
| 2026-04-30 14:41 | 48.03875 | 15.97353 | 14437 ft | 376 kts | 274° |
| 2026-04-30 14:41 | 48.03903 | 15.95508 | 14730 ft | 378 kts | 275° |
| 2026-04-30 14:41 | 48.03962 | 15.91560 | 15345 ft | 382 kts | 275° |
| 2026-04-30 14:42 | 48.04019 | 15.87568 | 15981 ft | 386 kts | 275° |
| 2026-04-30 14:42 | 48.04076 | 15.83545 | 16613 ft | 390 kts | 275° |
| 2026-04-30 14:42 | 48.04132 | 15.79470 | 17231 ft | 393 kts | 275° |
| 2026-04-30 14:42 | 48.04188 | 15.75363 | 17841 ft | 398 kts | 275° |
| 2026-04-30 14:43 | 48.04246 | 15.71211 | 18453 ft | 402 kts | 275° |
| 2026-04-30 14:43 | 48.04305 | 15.67018 | 19026 ft | 406 kts | 275° |
| 2026-04-30 14:43 | 48.04361 | 15.62782 | 19591 ft | 409 kts | 275° |
| 2026-04-30 14:43 | 48.04413 | 15.58510 | 20158 ft | 412 kts | 275° |
| 2026-04-30 14:44 | 48.04462 | 15.54212 | 20720 ft | 415 kts | 275° |
| 2026-04-30 14:44 | 48.04509 | 15.49924 | 21257 ft | 419 kts | 275° |
| 2026-04-30 14:44 | 48.04554 | 15.45558 | 21738 ft | 422 kts | 275° |
| 2026-04-30 14:44 | 48.04601 | 15.41155 | 22225 ft | 426 kts | 275° |
| 2026-04-30 14:45 | 48.04651 | 15.36699 | 22729 ft | 429 kts | 275° |
| 2026-04-30 14:45 | 48.04712 | 15.32231 | 23219 ft | 431 kts | 276° |
| 2026-04-30 14:45 | 48.04785 | 15.27742 | 23715 ft | 434 kts | 276° |
| 2026-04-30 14:45 | 48.04862 | 15.23217 | 24130 ft | 437 kts | 276° |
| 2026-04-30 14:46 | 48.04899 | 15.21089 | 24313 ft | 438 kts | 276° |
| 2026-04-30 14:46 | 48.04962 | 15.17371 | 24607 ft | 441 kts | 276° |
| 2026-04-30 14:46 | 48.05035 | 15.12770 | 24961 ft | 444 kts | 276° |
| 2026-04-30 14:47 | 48.05103 | 15.08144 | 25330 ft | 447 kts | 276° |
| 2026-04-30 14:47 | 48.05170 | 15.03478 | 25644 ft | 450 kts | 276° |
| 2026-04-30 14:47 | 48.05236 | 14.98773 | 25945 ft | 454 kts | 276° |
| 2026-04-30 14:47 | 48.05300 | 14.94050 | 26268 ft | 457 kts | 276° |
| 2026-04-30 14:48 | 48.05361 | 14.89331 | 26597 ft | 460 kts | 276° |
| 2026-04-30 14:48 | 48.05421 | 14.84534 | 26920 ft | 463 kts | 276° |
| 2026-04-30 14:48 | 48.05476 | 14.79654 | 27248 ft | 466 kts | 276° |
| 2026-04-30 14:48 | 48.05522 | 14.74879 | 27552 ft | 469 kts | 276° |
| 2026-04-30 14:49 | 48.05560 | 14.69966 | 27856 ft | 471 kts | 276° |
| 2026-04-30 14:49 | 48.05593 | 14.65056 | 28146 ft | 474 kts | 276° |
| 2026-04-30 14:49 | 48.05623 | 14.60115 | 28385 ft | 477 kts | 276° |
| 2026-04-30 14:49 | 48.05652 | 14.55128 | 28627 ft | 481 kts | 276° |
| 2026-04-30 14:50 | 48.05708 | 14.45076 | 29155 ft | 486 kts | 276° |
| 2026-04-30 14:50 | 48.05734 | 14.40020 | 29401 ft | 488 kts | 276° |
| 2026-04-30 14:51 | 48.05781 | 14.29896 | 29875 ft | 492 kts | 276° |
| 2026-04-30 14:51 | 48.05804 | 14.24765 | 30156 ft | 493 kts | 276° |
| 2026-04-30 14:51 | 48.05835 | 14.14549 | 30377 ft | 489 kts | 276° |
| 2026-04-30 14:52 | 48.05848 | 14.09476 | 30410 ft | 489 kts | 276° |
| 2026-04-30 14:52 | 48.05886 | 13.94193 | 30376 ft | 490 kts | 276° |
| 2026-04-30 14:53 | 48.05898 | 13.78934 | 30382 ft | 490 kts | 276° |
| 2026-04-30 14:54 | 48.05871 | 13.58551 | 30366 ft | 490 kts | 276° |
| 2026-04-30 14:55 | 48.04962 | 13.43198 | 30369 ft | 497 kts | 268° |
| 2026-04-30 14:56 | 48.03185 | 13.22706 | 30364 ft | 497 kts | 268° |
| 2026-04-30 14:57 | 48.01854 | 13.07335 | 30372 ft | 497 kts | 268° |
| 2026-04-30 14:58 | 48.00538 | 12.92393 | 30370 ft | 497 kts | 268° |
| 2026-04-30 14:58 | 47.99309 | 12.78899 | 30342 ft | 497 kts | 267° |